Maple Springs, North Carolina
Current Conditions -  °F | °C
As of 3:35 PM on Saturday 20 Dec 2014 (Local Time) from KTNB Reporting Station
Light Rain Light Rain  
Wind Chill: 34°   Ceiling: Unl
Heat Index: 37°   Visibility: 10mi
Dew Point: 31°   Wind: 5mph
Humidity: 79%   Direction: 120°ESE
Pressure: 30.12"   Gusts: NA
Location:  36.2179°N, 81.3873°W
Report Text: KTNB 202035Z AUTO 12004KT 10SM -RA SCT046 03/00 A3012 RMK AO2 T00301003
Loading
Personal Weather Stations






























Interactive Weather Map New forecast layout! Learn more

10-Day Weather Forecast

Advertisements
Track Severe Weather on mobile